Terminal Aerodrome Forecast
Issued by NWS Lubbock, TX

Home | Current Version | Previous Version | Text Only | Print | Product List | Glossary On
Versions: 1 2 3 4 5 6 7 8 9 10 11 12 13 14
626
FTUS44 KLUB 231139
TAFLBB
TAF
KLBB 231139Z 2312/2412 26015KT P6SM SCT250
     FM231700 26028G38KT 6SM BLDU SCT250
     FM240100 28015KT P6SM SCT250=

USA.gov is the U.S. government's official web portal to all federal, state and local government web resources and services.